sensor_id;sensor_type;location;lat;lon;timestamp;P1;durP1;ratioP1;P2;durP2;ratioP2
45490;SDS011;31237;45.586;13.782;2024-02-15T00:02:22;5.55;;;2.70;;
45490;SDS011;31237;45.586;13.782;2024-02-15T00:04:48;5.38;;;2.55;;
45490;SDS011;31237;45.586;13.782;2024-02-15T00:07:14;4.72;;;2.67;;
45490;SDS011;31237;45.586;13.782;2024-02-15T00:09:40;3.15;;;2.17;;
45490;SDS011;31237;45.586;13.782;2024-02-15T00:12:06;6.03;;;2.45;;
45490;SDS011;31237;45.586;13.782;2024-02-15T00:14:32;5.35;;;2.80;;
45490;SDS011;31237;45.586;13.782;2024-02-15T00:16:58;6.13;;;2.80;;
45490;SDS011;31237;45.586;13.782;2024-02-15T00:19:24;5.22;;;2.45;;
45490;SDS011;31237;45.586;13.782;2024-02-15T00:21:50;5.75;;;2.90;;
45490;SDS011;31237;45.586;13.782;2024-02-15T00:24:16;5.43;;;2.95;;
45490;SDS011;31237;45.586;13.782;2024-02-15T00:26:42;6.38;;;2.97;;
45490;SDS011;31237;45.586;13.782;2024-02-15T00:29:08;5.25;;;2.42;;
45490;SDS011;31237;45.586;13.782;2024-02-15T00:31:34;4.80;;;2.58;;
45490;SDS011;31237;45.586;13.782;2024-02-15T00:34:03;4.80;;;2.80;;
45490;SDS011;31237;45.586;13.782;2024-02-15T00:36:29;7.55;;;2.67;;
45490;SDS011;31237;45.586;13.782;2024-02-15T00:38:55;4.63;;;2.70;;
45490;SDS011;31237;45.586;13.782;2024-02-15T00:41:21;4.55;;;2.38;;
45490;SDS011;31237;45.586;13.782;2024-02-15T00:43:47;6.75;;;3.00;;
45490;SDS011;31237;45.586;13.782;2024-02-15T00:46:13;6.55;;;3.88;;
45490;SDS011;31237;45.586;13.782;2024-02-15T00:48:40;6.45;;;4.60;;
45490;SDS011;31237;45.586;13.782;2024-02-15T00:51:06;8.05;;;4.90;;
45490;SDS011;31237;45.586;13.782;2024-02-15T00:53:32;12.07;;;5.72;;
45490;SDS011;31237;45.586;13.782;2024-02-15T00:55:58;9.07;;;5.30;;
45490;SDS011;31237;45.586;13.782;2024-02-15T00:58:24;9.20;;;4.78;;
45490;SDS011;31237;45.586;13.782;2024-02-15T01:00:52;8.73;;;4.20;;
45490;SDS011;31237;45.586;13.782;2024-02-15T01:03:18;6.10;;;4.20;;
45490;SDS011;31237;45.586;13.782;2024-02-15T01:05:45;6.45;;;4.10;;
45490;SDS011;31237;45.586;13.782;2024-02-15T01:08:11;10.95;;;4.10;;
45490;SDS011;31237;45.586;13.782;2024-02-15T01:10:37;6.85;;;3.40;;
45490;SDS011;31237;45.586;13.782;2024-02-15T01:13:03;7.35;;;3.53;;
45490;SDS011;31237;45.586;13.782;2024-02-15T01:15:28;5.35;;;3.47;;
45490;SDS011;31237;45.586;13.782;2024-02-15T01:17:54;6.05;;;3.35;;
45490;SDS011;31237;45.586;13.782;2024-02-15T01:20:20;5.55;;;3.38;;
45490;SDS011;31237;45.586;13.782;2024-02-15T01:22:46;5.28;;;3.30;;
45490;SDS011;31237;45.586;13.782;2024-02-15T01:25:12;5.82;;;3.53;;
45490;SDS011;31237;45.586;13.782;2024-02-15T01:27:40;5.32;;;3.20;;
45490;SDS011;31237;45.586;13.782;2024-02-15T01:30:07;7.68;;;3.30;;
45490;SDS011;31237;45.586;13.782;2024-02-15T01:32:33;6.10;;;3.60;;
45490;SDS011;31237;45.586;13.782;2024-02-15T01:34:59;6.13;;;3.17;;
45490;SDS011;31237;45.586;13.782;2024-02-15T01:37:25;6.07;;;3.33;;
45490;SDS011;31237;45.586;13.782;2024-02-15T01:39:51;6.20;;;3.10;;
45490;SDS011;31237;45.586;13.782;2024-02-15T01:42:17;5.28;;;3.38;;
45490;SDS011;31237;45.586;13.782;2024-02-15T01:44:44;5.20;;;3.17;;
45490;SDS011;31237;45.586;13.782;2024-02-15T01:47:10;6.13;;;3.20;;
45490;SDS011;31237;45.586;13.782;2024-02-15T01:49:36;6.57;;;3.35;;
45490;SDS011;31237;45.586;13.782;2024-02-15T01:52:02;6.32;;;3.42;;
45490;SDS011;31237;45.586;13.782;2024-02-15T01:54:33;6.47;;;3.80;;
45490;SDS011;31237;45.586;13.782;2024-02-15T01:56:59;9.23;;;4.95;;
45490;SDS011;31237;45.586;13.782;2024-02-15T01:59:25;6.30;;;3.88;;
45490;SDS011;31237;45.586;13.782;2024-02-15T02:01:51;7.00;;;3.85;;
45490;SDS011;31237;45.586;13.782;2024-02-15T02:04:17;5.70;;;3.55;;
45490;SDS011;31237;45.586;13.782;2024-02-15T02:06:43;7.07;;;4.15;;
45490;SDS011;31237;45.586;13.782;2024-02-15T02:09:12;10.77;;;4.45;;
45490;SDS011;31237;45.586;13.782;2024-02-15T02:11:39;6.85;;;4.28;;
45490;SDS011;31237;45.586;13.782;2024-02-15T02:14:11;7.68;;;4.78;;
45490;SDS011;31237;45.586;13.782;2024-02-15T02:16:37;9.57;;;5.55;;
45490;SDS011;31237;45.586;13.782;2024-02-15T02:19:04;8.43;;;5.40;;
45490;SDS011;31237;45.586;13.782;2024-02-15T02:21:34;9.10;;;5.13;;
45490;SDS011;31237;45.586;13.782;2024-02-15T02:24:02;9.75;;;5.25;;
45490;SDS011;31237;45.586;13.782;2024-02-15T02:26:33;8.85;;;4.97;;
45490;SDS011;31237;45.586;13.782;2024-02-15T02:28:59;9.82;;;5.40;;
45490;SDS011;31237;45.586;13.782;2024-02-15T02:31:32;9.80;;;5.22;;
45490;SDS011;31237;45.586;13.782;2024-02-15T02:33:59;6.50;;;4.13;;
45490;SDS011;31237;45.586;13.782;2024-02-15T02:36:26;8.00;;;3.80;;
45490;SDS011;31237;45.586;13.782;2024-02-15T02:38:51;6.75;;;3.88;;
45490;SDS011;31237;45.586;13.782;2024-02-15T02:41:17;9.52;;;3.95;;
45490;SDS011;31237;45.586;13.782;2024-02-15T02:43:48;6.32;;;3.80;;
45490;SDS011;31237;45.586;13.782;2024-02-15T02:46:14;6.20;;;3.35;;
45490;SDS011;31237;45.586;13.782;2024-02-15T02:48:40;6.15;;;3.25;;
45490;SDS011;31237;45.586;13.782;2024-02-15T02:51:06;4.65;;;3.38;;
45490;SDS011;31237;45.586;13.782;2024-02-15T02:53:33;7.35;;;3.70;;
45490;SDS011;31237;45.586;13.782;2024-02-15T02:55:58;6.80;;;3.45;;
45490;SDS011;31237;45.586;13.782;2024-02-15T02:58:25;6.10;;;4.00;;
45490;SDS011;31237;45.586;13.782;2024-02-15T03:00:51;8.38;;;4.20;;
45490;SDS011;31237;45.586;13.782;2024-02-15T03:06:39;5.53;;;3.35;;
45490;SDS011;31237;45.586;13.782;2024-02-15T03:09:07;5.13;;;3.25;;
45490;SDS011;31237;45.586;13.782;2024-02-15T03:11:34;4.85;;;2.95;;
45490;SDS011;31237;45.586;13.782;2024-02-15T03:14:01;6.43;;;3.10;;
45490;SDS011;31237;45.586;13.782;2024-02-15T03:16:29;5.70;;;3.33;;
45490;SDS011;31237;45.586;13.782;2024-02-15T03:18:56;5.30;;;3.10;;
45490;SDS011;31237;45.586;13.782;2024-02-15T03:21:22;5.55;;;3.20;;
45490;SDS011;31237;45.586;13.782;2024-02-15T03:23:47;5.35;;;3.30;;
45490;SDS011;31237;45.586;13.782;2024-02-15T03:26:13;5.05;;;3.40;;
45490;SDS011;31237;45.586;13.782;2024-02-15T03:28:39;6.65;;;3.83;;
45490;SDS011;31237;45.586;13.782;2024-02-15T03:31:05;7.85;;;3.92;;
45490;SDS011;31237;45.586;13.782;2024-02-15T03:33:31;8.35;;;4.38;;
45490;SDS011;31237;45.586;13.782;2024-02-15T03:35:59;10.75;;;4.80;;
45490;SDS011;31237;45.586;13.782;2024-02-15T03:38:29;7.53;;;4.53;;
45490;SDS011;31237;45.586;13.782;2024-02-15T03:40:55;8.38;;;4.72;;
45490;SDS011;31237;45.586;13.782;2024-02-15T03:43:21;10.82;;;4.60;;
45490;SDS011;31237;45.586;13.782;2024-02-15T03:45:48;7.70;;;4.50;;
45490;SDS011;31237;45.586;13.782;2024-02-15T03:48:15;7.72;;;4.70;;
45490;SDS011;31237;45.586;13.782;2024-02-15T03:50:41;10.23;;;4.55;;
45490;SDS011;31237;45.586;13.782;2024-02-15T03:53:08;14.75;;;4.88;;
45490;SDS011;31237;45.586;13.782;2024-02-15T03:55:36;7.18;;;4.45;;
45490;SDS011;31237;45.586;13.782;2024-02-15T03:58:01;7.15;;;3.78;;
45490;SDS011;31237;45.586;13.782;2024-02-15T04:00:28;7.60;;;4.20;;
45490;SDS011;31237;45.586;13.782;2024-02-15T04:02:54;8.50;;;4.57;;
45490;SDS011;31237;45.586;13.782;2024-02-15T04:05:21;6.72;;;4.20;;
45490;SDS011;31237;45.586;13.782;2024-02-15T04:07:48;8.23;;;4.60;;
45490;SDS011;31237;45.586;13.782;2024-02-15T04:10:14;7.35;;;4.43;;
45490;SDS011;31237;45.586;13.782;2024-02-15T04:12:40;6.30;;;4.10;;
45490;SDS011;31237;45.586;13.782;2024-02-15T04:15:08;9.07;;;3.75;;
45490;SDS011;31237;45.586;13.782;2024-02-15T04:17:39;5.50;;;3.95;;
45490;SDS011;31237;45.586;13.782;2024-02-15T04:20:05;6.45;;;3.92;;
45490;SDS011;31237;45.586;13.782;2024-02-15T04:22:33;5.53;;;3.88;;
45490;SDS011;31237;45.586;13.782;2024-02-15T04:25:02;4.15;;;3.00;;
45490;SDS011;31237;45.586;13.782;2024-02-15T04:27:32;6.55;;;3.42;;
45490;SDS011;31237;45.586;13.782;2024-02-15T04:30:02;5.60;;;3.10;;
45490;SDS011;31237;45.586;13.782;2024-02-15T04:32:29;12.13;;;8.13;;
45490;SDS011;31237;45.586;13.782;2024-02-15T04:34:58;29.10;;;19.95;;
45490;SDS011;31237;45.586;13.782;2024-02-15T04:37:25;31.65;;;21.42;;
45490;SDS011;31237;45.586;13.782;2024-02-15T04:39:52;24.77;;;17.27;;
45490;SDS011;31237;45.586;13.782;2024-02-15T04:42:17;22.15;;;15.25;;
45490;SDS011;31237;45.586;13.782;2024-02-15T04:44:43;16.33;;;11.90;;
45490;SDS011;31237;45.586;13.782;2024-02-15T04:47:09;11.70;;;8.40;;
45490;SDS011;31237;45.586;13.782;2024-02-15T04:49:35;10.38;;;6.63;;
45490;SDS011;31237;45.586;13.782;2024-02-15T04:52:04;9.27;;;5.70;;
45490;SDS011;31237;45.586;13.782;2024-02-15T04:54:32;7.70;;;5.10;;
45490;SDS011;31237;45.586;13.782;2024-02-15T04:56:58;8.40;;;4.82;;
45490;SDS011;31237;45.586;13.782;2024-02-15T04:59:24;7.35;;;4.93;;
45490;SDS011;31237;45.586;13.782;2024-02-15T05:01:54;6.70;;;4.30;;
45490;SDS011;31237;45.586;13.782;2024-02-15T05:04:21;7.03;;;4.47;;
45490;SDS011;31237;45.586;13.782;2024-02-15T05:06:47;8.30;;;5.50;;
45490;SDS011;31237;45.586;13.782;2024-02-15T05:09:13;8.52;;;3.95;;
45490;SDS011;31237;45.586;13.782;2024-02-15T05:11:39;6.22;;;4.00;;
45490;SDS011;31237;45.586;13.782;2024-02-15T05:14:15;6.55;;;3.90;;
45490;SDS011;31237;45.586;13.782;2024-02-15T05:16:45;6.05;;;3.95;;
45490;SDS011;31237;45.586;13.782;2024-02-15T05:19:15;8.50;;;4.45;;
45490;SDS011;31237;45.586;13.782;2024-02-15T05:21:44;6.22;;;3.72;;
45490;SDS011;31237;45.586;13.782;2024-02-15T05:24:12;5.80;;;3.95;;
45490;SDS011;31237;45.586;13.782;2024-02-15T05:26:43;6.78;;;3.10;;
45490;SDS011;31237;45.586;13.782;2024-02-15T05:29:13;6.85;;;3.90;;
45490;SDS011;31237;45.586;13.782;2024-02-15T05:31:39;7.05;;;3.00;;
45490;SDS011;31237;45.586;13.782;2024-02-15T05:34:05;5.60;;;3.00;;
45490;SDS011;31237;45.586;13.782;2024-02-15T05:36:36;5.50;;;3.22;;
45490;SDS011;31237;45.586;13.782;2024-02-15T05:39:03;5.45;;;3.10;;
45490;SDS011;31237;45.586;13.782;2024-02-15T05:41:30;5.45;;;2.58;;
45490;SDS011;31237;45.586;13.782;2024-02-15T05:43:57;7.70;;;4.55;;
45490;SDS011;31237;45.586;13.782;2024-02-15T05:46:24;6.72;;;4.68;;
45490;SDS011;31237;45.586;13.782;2024-02-15T05:48:50;6.30;;;3.95;;
45490;SDS011;31237;45.586;13.782;2024-02-15T05:51:19;6.03;;;3.55;;
45490;SDS011;31237;45.586;13.782;2024-02-15T05:53:44;5.85;;;3.08;;
45490;SDS011;31237;45.586;13.782;2024-02-15T05:56:10;4.68;;;3.22;;
45490;SDS011;31237;45.586;13.782;2024-02-15T05:58:37;5.55;;;3.38;;
45490;SDS011;31237;45.586;13.782;2024-02-15T06:01:04;5.95;;;2.90;;
45490;SDS011;31237;45.586;13.782;2024-02-15T06:03:32;4.60;;;3.08;;
45490;SDS011;31237;45.586;13.782;2024-02-15T06:05:59;4.78;;;2.88;;
45490;SDS011;31237;45.586;13.782;2024-02-15T06:08:29;5.30;;;2.83;;
45490;SDS011;31237;45.586;13.782;2024-02-15T06:10:55;4.72;;;2.80;;
45490;SDS011;31237;45.586;13.782;2024-02-15T06:13:21;5.03;;;3.08;;
45490;SDS011;31237;45.586;13.782;2024-02-15T06:15:48;7.80;;;3.63;;
45490;SDS011;31237;45.586;13.782;2024-02-15T06:18:27;7.20;;;4.07;;
45490;SDS011;31237;45.586;13.782;2024-02-15T06:20:57;6.45;;;3.83;;
45490;SDS011;31237;45.586;13.782;2024-02-15T06:23:27;7.50;;;4.20;;
45490;SDS011;31237;45.586;13.782;2024-02-15T06:25:54;6.45;;;3.60;;
45490;SDS011;31237;45.586;13.782;2024-02-15T06:28:23;8.52;;;4.00;;
45490;SDS011;31237;45.586;13.782;2024-02-15T06:31:08;8.73;;;4.53;;
45490;SDS011;31237;45.586;13.782;2024-02-15T06:33:54;8.30;;;4.85;;
45490;SDS011;31237;45.586;13.782;2024-02-15T06:39:32;7.45;;;4.60;;
45490;SDS011;31237;45.586;13.782;2024-02-15T06:42:08;7.65;;;4.47;;
45490;SDS011;31237;45.586;13.782;2024-02-15T06:44:40;8.27;;;4.63;;
45490;SDS011;31237;45.586;13.782;2024-02-15T06:47:05;7.05;;;4.40;;
45490;SDS011;31237;45.586;13.782;2024-02-15T06:49:32;7.50;;;4.40;;
45490;SDS011;31237;45.586;13.782;2024-02-15T06:51:58;7.47;;;4.75;;
45490;SDS011;31237;45.586;13.782;2024-02-15T06:54:27;6.20;;;4.25;;
45490;SDS011;31237;45.586;13.782;2024-02-15T06:56:53;7.22;;;4.30;;
45490;SDS011;31237;45.586;13.782;2024-02-15T06:59:19;5.93;;;3.92;;
45490;SDS011;31237;45.586;13.782;2024-02-15T07:01:48;6.82;;;4.43;;
45490;SDS011;31237;45.586;13.782;2024-02-15T07:04:18;7.72;;;3.80;;
45490;SDS011;31237;45.586;13.782;2024-02-15T07:06:45;6.75;;;3.88;;
45490;SDS011;31237;45.586;13.782;2024-02-15T07:09:13;6.78;;;3.65;;
45490;SDS011;31237;45.586;13.782;2024-02-15T07:11:44;6.32;;;3.88;;
45490;SDS011;31237;45.586;13.782;2024-02-15T07:14:11;6.22;;;4.00;;
45490;SDS011;31237;45.586;13.782;2024-02-15T07:16:37;6.57;;;3.90;;
45490;SDS011;31237;45.586;13.782;2024-02-15T07:19:03;7.03;;;3.97;;
45490;SDS011;31237;45.586;13.782;2024-02-15T07:21:29;6.30;;;3.75;;
45490;SDS011;31237;45.586;13.782;2024-02-15T07:23:56;5.57;;;3.65;;
45490;SDS011;31237;45.586;13.782;2024-02-15T07:26:25;7.05;;;3.40;;
45490;SDS011;31237;45.586;13.782;2024-02-15T07:28:53;5.40;;;3.20;;
45490;SDS011;31237;45.586;13.782;2024-02-15T07:31:19;4.65;;;3.10;;
45490;SDS011;31237;45.586;13.782;2024-02-15T07:33:50;5.30;;;3.15;;
45490;SDS011;31237;45.586;13.782;2024-02-15T07:36:20;5.00;;;3.05;;
45490;SDS011;31237;45.586;13.782;2024-02-15T07:38:52;5.43;;;2.88;;
45490;SDS011;31237;45.586;13.782;2024-02-15T07:41:22;4.78;;;2.85;;
45490;SDS011;31237;45.586;13.782;2024-02-15T07:43:48;5.32;;;2.60;;
45490;SDS011;31237;45.586;13.782;2024-02-15T07:46:15;5.90;;;2.42;;
45490;SDS011;31237;45.586;13.782;2024-02-15T07:48:41;4.45;;;2.53;;
45490;SDS011;31237;45.586;13.782;2024-02-15T07:51:14;4.70;;;2.78;;
45490;SDS011;31237;45.586;13.782;2024-02-15T07:53:41;5.82;;;3.17;;
45490;SDS011;31237;45.586;13.782;2024-02-15T07:56:08;6.25;;;3.20;;
45490;SDS011;31237;45.586;13.782;2024-02-15T07:58:37;5.03;;;3.50;;
45490;SDS011;31237;45.586;13.782;2024-02-15T08:01:06;4.90;;;3.45;;
45490;SDS011;31237;45.586;13.782;2024-02-15T08:03:33;6.28;;;3.85;;
45490;SDS011;31237;45.586;13.782;2024-02-15T08:06:00;6.40;;;3.40;;
45490;SDS011;31237;45.586;13.782;2024-02-15T08:08:31;6.97;;;3.17;;
45490;SDS011;31237;45.586;13.782;2024-02-15T08:10:59;5.20;;;3.35;;
45490;SDS011;31237;45.586;13.782;2024-02-15T08:13:27;5.97;;;3.67;;
45490;SDS011;31237;45.586;13.782;2024-02-15T08:15:54;7.63;;;5.25;;
45490;SDS011;31237;45.586;13.782;2024-02-15T08:18:20;8.00;;;5.20;;
45490;SDS011;31237;45.586;13.782;2024-02-15T08:20:47;7.57;;;3.85;;
45490;SDS011;31237;45.586;13.782;2024-02-15T08:23:12;6.82;;;4.40;;
45490;SDS011;31237;45.586;13.782;2024-02-15T08:25:38;8.02;;;4.03;;
45490;SDS011;31237;45.586;13.782;2024-02-15T08:28:07;10.27;;;9.20;;
45490;SDS011;31237;45.586;13.782;2024-02-15T08:30:33;7.55;;;3.50;;
45490;SDS011;31237;45.586;13.782;2024-02-15T08:32:59;7.25;;;3.35;;
45490;SDS011;31237;45.586;13.782;2024-02-15T08:35:25;6.82;;;3.60;;
45490;SDS011;31237;45.586;13.782;2024-02-15T08:37:50;5.60;;;3.65;;
45490;SDS011;31237;45.586;13.782;2024-02-15T08:40:18;7.25;;;4.40;;
45490;SDS011;31237;45.586;13.782;2024-02-15T08:42:49;5.25;;;3.63;;
45490;SDS011;31237;45.586;13.782;2024-02-15T08:45:15;6.50;;;3.75;;
45490;SDS011;31237;45.586;13.782;2024-02-15T08:47:42;6.15;;;3.75;;
45490;SDS011;31237;45.586;13.782;2024-02-15T08:50:09;8.18;;;3.60;;
45490;SDS011;31237;45.586;13.782;2024-02-15T08:52:37;4.80;;;3.25;;
45490;SDS011;31237;45.586;13.782;2024-02-15T08:55:05;5.43;;;3.13;;
45490;SDS011;31237;45.586;13.782;2024-02-15T08:57:32;5.05;;;3.10;;
45490;SDS011;31237;45.586;13.782;2024-02-15T08:59:58;5.15;;;3.05;;
45490;SDS011;31237;45.586;13.782;2024-02-15T09:02:24;7.28;;;3.72;;
45490;SDS011;31237;45.586;13.782;2024-02-15T09:04:50;11.05;;;3.60;;
45490;SDS011;31237;45.586;13.782;2024-02-15T09:07:16;11.85;;;4.07;;
45490;SDS011;31237;45.586;13.782;2024-02-15T09:09:42;5.50;;;3.75;;
45490;SDS011;31237;45.586;13.782;2024-02-15T09:12:08;8.43;;;3.63;;
45490;SDS011;31237;45.586;13.782;2024-02-15T09:14:34;11.48;;;10.38;;
45490;SDS011;31237;45.586;13.782;2024-02-15T09:17:04;8.63;;;4.63;;
45490;SDS011;31237;45.586;13.782;2024-02-15T09:19:33;6.20;;;4.40;;
45490;SDS011;31237;45.586;13.782;2024-02-15T09:22:02;10.25;;;4.80;;
45490;SDS011;31237;45.586;13.782;2024-02-15T09:24:31;7.00;;;4.18;;
45490;SDS011;31237;45.586;13.782;2024-02-15T09:27:01;6.28;;;4.43;;
45490;SDS011;31237;45.586;13.782;2024-02-15T09:29:27;5.38;;;3.83;;
45490;SDS011;31237;45.586;13.782;2024-02-15T09:31:59;7.80;;;4.60;;
45490;SDS011;31237;45.586;13.782;2024-02-15T09:34:27;7.65;;;4.60;;
45490;SDS011;31237;45.586;13.782;2024-02-15T09:36:53;7.40;;;4.28;;
45490;SDS011;31237;45.586;13.782;2024-02-15T09:39:18;7.03;;;4.30;;
45490;SDS011;31237;45.586;13.782;2024-02-15T09:41:44;8.13;;;4.43;;
45490;SDS011;31237;45.586;13.782;2024-02-15T09:44:10;7.18;;;4.25;;
45490;SDS011;31237;45.586;13.782;2024-02-15T09:46:42;8.18;;;4.20;;
45490;SDS011;31237;45.586;13.782;2024-02-15T09:49:10;8.80;;;4.18;;
45490;SDS011;31237;45.586;13.782;2024-02-15T09:51:39;6.10;;;3.80;;
45490;SDS011;31237;45.586;13.782;2024-02-15T09:54:07;4.63;;;3.38;;
45490;SDS011;31237;45.586;13.782;2024-02-15T09:56:37;6.40;;;4.25;;
45490;SDS011;31237;45.586;13.782;2024-02-15T09:59:05;7.78;;;4.03;;
45490;SDS011;31237;45.586;13.782;2024-02-15T10:02:28;6.75;;;4.75;;
45490;SDS011;31237;45.586;13.782;2024-02-15T10:04:55;6.38;;;4.57;;
45490;SDS011;31237;45.586;13.782;2024-02-15T10:07:23;7.43;;;5.10;;
45490;SDS011;31237;45.586;13.782;2024-02-15T10:09:49;9.73;;;5.18;;
45490;SDS011;31237;45.586;13.782;2024-02-15T10:12:38;6.72;;;5.00;;
45490;SDS011;31237;45.586;13.782;2024-02-15T10:15:04;8.90;;;4.97;;
45490;SDS011;31237;45.586;13.782;2024-02-15T10:17:32;7.45;;;5.82;;
45490;SDS011;31237;45.586;13.782;2024-02-15T10:20:03;12.90;;;6.43;;
45490;SDS011;31237;45.586;13.782;2024-02-15T10:22:30;13.65;;;6.88;;
45490;SDS011;31237;45.586;13.782;2024-02-15T10:25:13;11.43;;;6.93;;
45490;SDS011;31237;45.586;13.782;2024-02-15T10:27:39;11.07;;;6.93;;
45490;SDS011;31237;45.586;13.782;2024-02-15T10:30:15;9.55;;;6.47;;
45490;SDS011;31237;45.586;13.782;2024-02-15T10:32:45;9.10;;;6.82;;
45490;SDS011;31237;45.586;13.782;2024-02-15T10:35:20;8.60;;;5.93;;
45490;SDS011;31237;45.586;13.782;2024-02-15T10:37:49;12.48;;;7.38;;
45490;SDS011;31237;45.586;13.782;2024-02-15T10:40:19;8.38;;;5.40;;
45490;SDS011;31237;45.586;13.782;2024-02-15T10:42:49;9.98;;;6.10;;
45490;SDS011;31237;45.586;13.782;2024-02-15T10:45:16;8.93;;;6.03;;
45490;SDS011;31237;45.586;13.782;2024-02-15T10:47:45;8.73;;;5.25;;
45490;SDS011;31237;45.586;13.782;2024-02-15T10:50:12;7.97;;;5.30;;
45490;SDS011;31237;45.586;13.782;2024-02-15T10:52:42;9.43;;;5.25;;
45490;SDS011;31237;45.586;13.782;2024-02-15T10:55:17;8.38;;;5.40;;
45490;SDS011;31237;45.586;13.782;2024-02-15T10:57:52;6.90;;;5.28;;
45490;SDS011;31237;45.586;13.782;2024-02-15T11:00:21;8.00;;;5.55;;
45490;SDS011;31237;45.586;13.782;2024-02-15T11:02:54;9.10;;;5.60;;
45490;SDS011;31237;45.586;13.782;2024-02-15T11:05:35;8.07;;;5.50;;
45490;SDS011;31237;45.586;13.782;2024-02-15T11:08:04;8.40;;;6.00;;
45490;SDS011;31237;45.586;13.782;2024-02-15T11:10:32;8.30;;;5.63;;
45490;SDS011;31237;45.586;13.782;2024-02-15T11:13:02;9.35;;;5.63;;
45490;SDS011;31237;45.586;13.782;2024-02-15T11:18:04;8.48;;;5.22;;
45490;SDS011;31237;45.586;13.782;2024-02-15T11:23:02;7.05;;;4.82;;
45490;SDS011;31237;45.586;13.782;2024-02-15T11:25:32;9.02;;;5.50;;
45490;SDS011;31237;45.586;13.782;2024-02-15T11:30:52;7.68;;;4.88;;
45490;SDS011;31237;45.586;13.782;2024-02-15T11:33:28;8.52;;;5.75;;
45490;SDS011;31237;45.586;13.782;2024-02-15T11:38:31;8.15;;;5.78;;
45490;SDS011;31237;45.586;13.782;2024-02-15T11:41:00;9.05;;;6.25;;
45490;SDS011;31237;45.586;13.782;2024-02-15T11:46:17;10.88;;;5.88;;
45490;SDS011;31237;45.586;13.782;2024-02-15T11:48:47;8.15;;;5.50;;
45490;SDS011;31237;45.586;13.782;2024-02-15T11:51:30;10.15;;;6.07;;
45490;SDS011;31237;45.586;13.782;2024-02-15T11:54:08;10.63;;;5.82;;
45490;SDS011;31237;45.586;13.782;2024-02-15T11:59:09;10.88;;;5.60;;
45490;SDS011;31237;45.586;13.782;2024-02-15T12:01:43;9.15;;;5.85;;
45490;SDS011;31237;45.586;13.782;2024-02-15T12:04:28;10.98;;;6.55;;
45490;SDS011;31237;45.586;13.782;2024-02-15T12:07:13;10.10;;;5.43;;
45490;SDS011;31237;45.586;13.782;2024-02-15T12:09:59;8.88;;;6.32;;
45490;SDS011;31237;45.586;13.782;2024-02-15T12:12:55;9.82;;;5.93;;
45490;SDS011;31237;45.586;13.782;2024-02-15T12:15:40;12.63;;;6.60;;
45490;SDS011;31237;45.586;13.782;2024-02-15T12:18:24;7.03;;;5.28;;
45490;SDS011;31237;45.586;13.782;2024-02-15T12:21:09;6.93;;;4.95;;
45490;SDS011;31237;45.586;13.782;2024-02-15T12:23:40;6.28;;;4.68;;
45490;SDS011;31237;45.586;13.782;2024-02-15T12:26:06;10.50;;;4.97;;
45490;SDS011;31237;45.586;13.782;2024-02-15T12:28:33;8.07;;;4.05;;
45490;SDS011;31237;45.586;13.782;2024-02-15T12:31:03;7.65;;;4.60;;
45490;SDS011;31237;45.586;13.782;2024-02-15T12:33:31;6.45;;;4.45;;
45490;SDS011;31237;45.586;13.782;2024-02-15T12:36:04;12.93;;;6.82;;
45490;SDS011;31237;45.586;13.782;2024-02-15T12:38:31;5.57;;;3.80;;
45490;SDS011;31237;45.586;13.782;2024-02-15T12:40:59;27.98;;;20.40;;
45490;SDS011;31237;45.586;13.782;2024-02-15T12:43:27;6.43;;;4.93;;
45490;SDS011;31237;45.586;13.782;2024-02-15T12:45:53;31.50;;;28.60;;
45490;SDS011;31237;45.586;13.782;2024-02-15T12:48:22;9.45;;;6.28;;
45490;SDS011;31237;45.586;13.782;2024-02-15T12:50:48;7.53;;;5.18;;
45490;SDS011;31237;45.586;13.782;2024-02-15T12:53:20;7.78;;;4.60;;
45490;SDS011;31237;45.586;13.782;2024-02-15T12:55:52;7.53;;;5.13;;
45490;SDS011;31237;45.586;13.782;2024-02-15T12:58:22;10.88;;;6.80;;
45490;SDS011;31237;45.586;13.782;2024-02-15T13:00:49;8.50;;;4.82;;
45490;SDS011;31237;45.586;13.782;2024-02-15T13:03:20;8.05;;;5.50;;
45490;SDS011;31237;45.586;13.782;2024-02-15T13:05:46;8.85;;;5.20;;
45490;SDS011;31237;45.586;13.782;2024-02-15T13:08:13;7.90;;;5.47;;
45490;SDS011;31237;45.586;13.782;2024-02-15T13:10:41;12.25;;;5.53;;
45490;SDS011;31237;45.586;13.782;2024-02-15T13:13:06;8.90;;;6.10;;
45490;SDS011;31237;45.586;13.782;2024-02-15T13:15:34;9.88;;;7.60;;
45490;SDS011;31237;45.586;13.782;2024-02-15T13:18:01;9.63;;;6.75;;
45490;SDS011;31237;45.586;13.782;2024-02-15T13:20:31;11.55;;;6.60;;
45490;SDS011;31237;45.586;13.782;2024-02-15T13:23:01;10.88;;;6.57;;
45490;SDS011;31237;45.586;13.782;2024-02-15T13:25:33;13.65;;;8.52;;
45490;SDS011;31237;45.586;13.782;2024-02-15T13:28:01;12.60;;;7.65;;
45490;SDS011;31237;45.586;13.782;2024-02-15T13:30:28;11.60;;;7.43;;
45490;SDS011;31237;45.586;13.782;2024-02-15T13:32:53;12.93;;;7.28;;
45490;SDS011;31237;45.586;13.782;2024-02-15T13:35:19;11.40;;;6.57;;
45490;SDS011;31237;45.586;13.782;2024-02-15T13:37:51;13.13;;;7.75;;
45490;SDS011;31237;45.586;13.782;2024-02-15T13:40:19;11.73;;;6.63;;
45490;SDS011;31237;45.586;13.782;2024-02-15T13:42:48;14.02;;;7.38;;
45490;SDS011;31237;45.586;13.782;2024-02-15T13:45:19;14.32;;;7.47;;
45490;SDS011;31237;45.586;13.782;2024-02-15T13:47:48;14.38;;;7.05;;
45490;SDS011;31237;45.586;13.782;2024-02-15T13:50:15;20.10;;;7.85;;
45490;SDS011;31237;45.586;13.782;2024-02-15T13:52:45;15.95;;;8.00;;
45490;SDS011;31237;45.586;13.782;2024-02-15T13:55:15;15.20;;;7.47;;
45490;SDS011;31237;45.586;13.782;2024-02-15T13:57:42;16.50;;;7.70;;
45490;SDS011;31237;45.586;13.782;2024-02-15T14:00:12;17.73;;;7.32;;
45490;SDS011;31237;45.586;13.782;2024-02-15T14:02:51;19.65;;;8.65;;
45490;SDS011;31237;45.586;13.782;2024-02-15T14:05:22;14.20;;;7.47;;
45490;SDS011;31237;45.586;13.782;2024-02-15T14:07:50;17.38;;;8.25;;
45490;SDS011;31237;45.586;13.782;2024-02-15T14:10:24;16.55;;;7.85;;
45490;SDS011;31237;45.586;13.782;2024-02-15T14:12:51;15.07;;;8.13;;
45490;SDS011;31237;45.586;13.782;2024-02-15T14:15:20;15.48;;;7.38;;
45490;SDS011;31237;45.586;13.782;2024-02-15T14:17:46;15.88;;;8.20;;
45490;SDS011;31237;45.586;13.782;2024-02-15T14:20:13;17.13;;;8.07;;
45490;SDS011;31237;45.586;13.782;2024-02-15T14:22:40;15.25;;;7.30;;
45490;SDS011;31237;45.586;13.782;2024-02-15T14:25:06;17.90;;;8.50;;
45490;SDS011;31237;45.586;13.782;2024-02-15T14:27:33;15.07;;;7.57;;
45490;SDS011;31237;45.586;13.782;2024-02-15T14:29:59;15.55;;;7.43;;
45490;SDS011;31237;45.586;13.782;2024-02-15T14:32:44;13.18;;;7.07;;
45490;SDS011;31237;45.586;13.782;2024-02-15T14:42:00;17.15;;;7.13;;
45490;SDS011;31237;45.586;13.782;2024-02-15T14:44:26;14.35;;;7.47;;
45490;SDS011;31237;45.586;13.782;2024-02-15T14:46:52;16.33;;;7.43;;
45490;SDS011;31237;45.586;13.782;2024-02-15T14:49:18;15.38;;;7.53;;
45490;SDS011;31237;45.586;13.782;2024-02-15T14:51:44;14.00;;;7.07;;
45490;SDS011;31237;45.586;13.782;2024-02-15T14:54:31;16.67;;;7.40;;
45490;SDS011;31237;45.586;13.782;2024-02-15T14:56:56;14.90;;;8.07;;
45490;SDS011;31237;45.586;13.782;2024-02-15T14:59:22;15.70;;;8.98;;
45490;SDS011;31237;45.586;13.782;2024-02-15T15:01:47;15.32;;;8.00;;
45490;SDS011;31237;45.586;13.782;2024-02-15T15:04:13;15.27;;;7.95;;
45490;SDS011;31237;45.586;13.782;2024-02-15T15:06:39;16.67;;;7.88;;
45490;SDS011;31237;45.586;13.782;2024-02-15T15:09:32;14.00;;;6.80;;